sensor_id;sensor_type;location;lat;lon;timestamp;P1;durP1;ratioP1;P2;durP2;ratioP2
57889;SDS011;43707;50.184;18.966;2023-11-19T00:01:32;3.10;;;2.40;;
57889;SDS011;43707;50.184;18.966;2023-11-19T00:03:58;12.10;;;2.50;;
57889;SDS011;43707;50.184;18.966;2023-11-19T00:06:23;2.90;;;2.50;;
57889;SDS011;43707;50.184;18.966;2023-11-19T00:08:50;2.00;;;1.70;;
57889;SDS011;43707;50.184;18.966;2023-11-19T00:11:16;2.40;;;2.00;;
57889;SDS011;43707;50.184;18.966;2023-11-19T00:13:41;2.40;;;2.10;;
57889;SDS011;43707;50.184;18.966;2023-11-19T00:16:07;21.20;;;2.90;;
57889;SDS011;43707;50.184;18.966;2023-11-19T00:18:35;6.40;;;2.30;;
57889;SDS011;43707;50.184;18.966;2023-11-19T00:21:01;3.20;;;2.50;;
57889;SDS011;43707;50.184;18.966;2023-11-19T00:23:27;5.10;;;2.40;;
57889;SDS011;43707;50.184;18.966;2023-11-19T00:25:53;3.40;;;2.40;;
57889;SDS011;43707;50.184;18.966;2023-11-19T00:28:18;5.30;;;2.60;;
57889;SDS011;43707;50.184;18.966;2023-11-19T00:30:44;3.50;;;2.10;;
57889;SDS011;43707;50.184;18.966;2023-11-19T00:33:09;6.20;;;2.70;;
57889;SDS011;43707;50.184;18.966;2023-11-19T00:35:35;3.30;;;2.60;;
57889;SDS011;43707;50.184;18.966;2023-11-19T00:38:00;3.60;;;2.60;;
57889;SDS011;43707;50.184;18.966;2023-11-19T00:40:27;3.40;;;2.80;;
57889;SDS011;43707;50.184;18.966;2023-11-19T00:42:53;4.30;;;2.70;;
57889;SDS011;43707;50.184;18.966;2023-11-19T00:45:19;3.40;;;2.60;;
57889;SDS011;43707;50.184;18.966;2023-11-19T00:47:44;4.10;;;2.90;;
57889;SDS011;43707;50.184;18.966;2023-11-19T00:50:10;4.30;;;3.00;;
57889;SDS011;43707;50.184;18.966;2023-11-19T00:52:36;3.40;;;2.80;;
57889;SDS011;43707;50.184;18.966;2023-11-19T00:55:02;6.70;;;3.30;;
57889;SDS011;43707;50.184;18.966;2023-11-19T00:57:29;4.60;;;3.30;;
57889;SDS011;43707;50.184;18.966;2023-11-19T00:59:57;5.70;;;3.10;;
57889;SDS011;43707;50.184;18.966;2023-11-19T01:02:24;5.00;;;3.10;;
57889;SDS011;43707;50.184;18.966;2023-11-19T01:04:49;4.60;;;3.50;;
57889;SDS011;43707;50.184;18.966;2023-11-19T01:07:15;4.40;;;3.70;;
57889;SDS011;43707;50.184;18.966;2023-11-19T01:09:41;4.60;;;3.30;;
57889;SDS011;43707;50.184;18.966;2023-11-19T01:12:07;5.20;;;3.50;;
57889;SDS011;43707;50.184;18.966;2023-11-19T01:14:34;5.30;;;3.30;;
57889;SDS011;43707;50.184;18.966;2023-11-19T01:17:00;5.80;;;4.10;;
57889;SDS011;43707;50.184;18.966;2023-11-19T01:19:26;5.40;;;4.00;;
57889;SDS011;43707;50.184;18.966;2023-11-19T01:21:53;5.80;;;3.10;;
57889;SDS011;43707;50.184;18.966;2023-11-19T01:24:18;4.30;;;3.10;;
57889;SDS011;43707;50.184;18.966;2023-11-19T01:26:44;4.30;;;3.20;;
57889;SDS011;43707;50.184;18.966;2023-11-19T01:29:12;4.00;;;2.90;;
57889;SDS011;43707;50.184;18.966;2023-11-19T01:31:39;4.00;;;3.20;;
57889;SDS011;43707;50.184;18.966;2023-11-19T01:34:08;5.30;;;3.50;;
57889;SDS011;43707;50.184;18.966;2023-11-19T01:36:35;5.90;;;3.00;;
57889;SDS011;43707;50.184;18.966;2023-11-19T01:39:00;4.80;;;3.20;;
57889;SDS011;43707;50.184;18.966;2023-11-19T01:41:26;4.40;;;3.10;;
57889;SDS011;43707;50.184;18.966;2023-11-19T01:43:52;4.10;;;2.90;;
57889;SDS011;43707;50.184;18.966;2023-11-19T01:46:17;4.50;;;3.20;;
57889;SDS011;43707;50.184;18.966;2023-11-19T01:48:44;4.10;;;3.30;;
57889;SDS011;43707;50.184;18.966;2023-11-19T01:51:10;5.20;;;3.30;;
57889;SDS011;43707;50.184;18.966;2023-11-19T01:53:38;4.20;;;3.00;;
57889;SDS011;43707;50.184;18.966;2023-11-19T01:56:04;4.20;;;3.10;;
57889;SDS011;43707;50.184;18.966;2023-11-19T01:58:35;4.80;;;3.00;;
57889;SDS011;43707;50.184;18.966;2023-11-19T02:01:01;3.50;;;2.70;;
57889;SDS011;43707;50.184;18.966;2023-11-19T02:03:30;4.00;;;3.00;;
57889;SDS011;43707;50.184;18.966;2023-11-19T02:05:56;4.60;;;3.00;;
57889;SDS011;43707;50.184;18.966;2023-11-19T02:08:22;5.30;;;3.30;;
57889;SDS011;43707;50.184;18.966;2023-11-19T02:10:48;3.90;;;3.10;;
57889;SDS011;43707;50.184;18.966;2023-11-19T02:13:13;3.80;;;2.90;;
57889;SDS011;43707;50.184;18.966;2023-11-19T02:15:40;4.30;;;2.70;;
57889;SDS011;43707;50.184;18.966;2023-11-19T02:18:24;4.90;;;3.00;;
57889;SDS011;43707;50.184;18.966;2023-11-19T02:20:55;4.30;;;2.90;;
57889;SDS011;43707;50.184;18.966;2023-11-19T02:23:21;4.30;;;2.30;;
57889;SDS011;43707;50.184;18.966;2023-11-19T02:25:47;4.30;;;2.50;;
57889;SDS011;43707;50.184;18.966;2023-11-19T02:28:39;3.40;;;2.30;;
57889;SDS011;43707;50.184;18.966;2023-11-19T02:31:05;2.70;;;2.40;;
57889;SDS011;43707;50.184;18.966;2023-11-19T02:33:34;3.00;;;2.20;;
57889;SDS011;43707;50.184;18.966;2023-11-19T02:36:02;3.20;;;1.90;;
57889;SDS011;43707;50.184;18.966;2023-11-19T02:38:29;4.70;;;1.80;;
57889;SDS011;43707;50.184;18.966;2023-11-19T02:40:56;5.90;;;1.60;;
57889;SDS011;43707;50.184;18.966;2023-11-19T02:43:22;2.80;;;1.60;;
57889;SDS011;43707;50.184;18.966;2023-11-19T02:45:48;1.80;;;1.40;;
57889;SDS011;43707;50.184;18.966;2023-11-19T02:48:13;1.90;;;1.70;;
57889;SDS011;43707;50.184;18.966;2023-11-19T02:50:41;3.40;;;1.60;;
57889;SDS011;43707;50.184;18.966;2023-11-19T02:53:07;3.20;;;2.40;;
57889;SDS011;43707;50.184;18.966;2023-11-19T02:55:32;1.90;;;1.70;;
57889;SDS011;43707;50.184;18.966;2023-11-19T02:58:02;2.40;;;1.90;;
57889;SDS011;43707;50.184;18.966;2023-11-19T03:00:44;2.40;;;1.80;;
57889;SDS011;43707;50.184;18.966;2023-11-19T03:03:17;2.20;;;1.90;;
57889;SDS011;43707;50.184;18.966;2023-11-19T03:05:45;3.30;;;1.90;;
57889;SDS011;43707;50.184;18.966;2023-11-19T03:08:12;2.30;;;1.80;;
57889;SDS011;43707;50.184;18.966;2023-11-19T03:10:39;3.20;;;1.90;;
57889;SDS011;43707;50.184;18.966;2023-11-19T03:13:04;2.60;;;1.80;;
57889;SDS011;43707;50.184;18.966;2023-11-19T03:15:29;2.90;;;1.50;;
57889;SDS011;43707;50.184;18.966;2023-11-19T03:17:55;2.40;;;1.80;;
57889;SDS011;43707;50.184;18.966;2023-11-19T03:20:20;2.30;;;1.70;;
57889;SDS011;43707;50.184;18.966;2023-11-19T03:22:46;2.20;;;1.60;;
57889;SDS011;43707;50.184;18.966;2023-11-19T03:25:11;2.40;;;2.00;;
57889;SDS011;43707;50.184;18.966;2023-11-19T03:27:38;2.10;;;1.60;;
57889;SDS011;43707;50.184;18.966;2023-11-19T03:30:08;1.50;;;1.40;;
57889;SDS011;43707;50.184;18.966;2023-11-19T03:32:37;2.60;;;1.80;;
57889;SDS011;43707;50.184;18.966;2023-11-19T03:35:04;2.80;;;1.80;;
57889;SDS011;43707;50.184;18.966;2023-11-19T03:37:32;2.40;;;1.80;;
57889;SDS011;43707;50.184;18.966;2023-11-19T03:39:58;2.30;;;1.70;;
57889;SDS011;43707;50.184;18.966;2023-11-19T03:42:25;2.70;;;2.20;;
57889;SDS011;43707;50.184;18.966;2023-11-19T03:44:59;2.80;;;1.90;;
57889;SDS011;43707;50.184;18.966;2023-11-19T03:47:25;2.70;;;1.80;;
57889;SDS011;43707;50.184;18.966;2023-11-19T03:49:50;2.50;;;1.90;;
57889;SDS011;43707;50.184;18.966;2023-11-19T03:52:19;2.40;;;1.60;;
57889;SDS011;43707;50.184;18.966;2023-11-19T03:54:45;2.90;;;2.00;;
57889;SDS011;43707;50.184;18.966;2023-11-19T03:57:13;3.80;;;2.40;;
57889;SDS011;43707;50.184;18.966;2023-11-19T03:59:40;2.40;;;1.90;;
57889;SDS011;43707;50.184;18.966;2023-11-19T04:02:06;2.60;;;2.30;;
57889;SDS011;43707;50.184;18.966;2023-11-19T04:04:31;2.60;;;1.90;;
57889;SDS011;43707;50.184;18.966;2023-11-19T04:06:57;3.60;;;2.30;;
57889;SDS011;43707;50.184;18.966;2023-11-19T04:09:23;3.10;;;2.30;;
57889;SDS011;43707;50.184;18.966;2023-11-19T04:11:49;3.40;;;2.50;;
57889;SDS011;43707;50.184;18.966;2023-11-19T04:14:14;2.60;;;2.00;;
57889;SDS011;43707;50.184;18.966;2023-11-19T04:16:40;2.80;;;2.60;;
57889;SDS011;43707;50.184;18.966;2023-11-19T04:19:06;3.40;;;2.70;;
57889;SDS011;43707;50.184;18.966;2023-11-19T04:21:32;3.20;;;2.40;;
57889;SDS011;43707;50.184;18.966;2023-11-19T04:23:57;2.70;;;2.40;;
57889;SDS011;43707;50.184;18.966;2023-11-19T04:26:23;3.60;;;2.20;;
57889;SDS011;43707;50.184;18.966;2023-11-19T04:28:49;3.60;;;2.60;;
57889;SDS011;43707;50.184;18.966;2023-11-19T04:31:14;3.80;;;2.70;;
57889;SDS011;43707;50.184;18.966;2023-11-19T04:33:41;4.00;;;3.00;;
57889;SDS011;43707;50.184;18.966;2023-11-19T04:36:08;4.00;;;3.00;;
57889;SDS011;43707;50.184;18.966;2023-11-19T04:38:35;3.40;;;2.20;;
57889;SDS011;43707;50.184;18.966;2023-11-19T04:41:00;2.60;;;2.10;;
57889;SDS011;43707;50.184;18.966;2023-11-19T04:43:26;3.40;;;2.70;;
57889;SDS011;43707;50.184;18.966;2023-11-19T04:45:51;3.00;;;2.50;;
57889;SDS011;43707;50.184;18.966;2023-11-19T04:48:17;3.40;;;2.40;;
57889;SDS011;43707;50.184;18.966;2023-11-19T04:50:42;3.20;;;2.20;;
57889;SDS011;43707;50.184;18.966;2023-11-19T04:53:08;3.40;;;2.10;;
57889;SDS011;43707;50.184;18.966;2023-11-19T04:55:33;2.60;;;2.00;;
57889;SDS011;43707;50.184;18.966;2023-11-19T04:57:58;2.90;;;2.10;;
57889;SDS011;43707;50.184;18.966;2023-11-19T05:00:24;2.50;;;2.00;;
57889;SDS011;43707;50.184;18.966;2023-11-19T05:02:51;2.30;;;1.70;;
57889;SDS011;43707;50.184;18.966;2023-11-19T05:05:16;2.50;;;2.10;;
57889;SDS011;43707;50.184;18.966;2023-11-19T05:07:42;2.40;;;1.90;;
57889;SDS011;43707;50.184;18.966;2023-11-19T05:10:08;2.30;;;2.10;;
57889;SDS011;43707;50.184;18.966;2023-11-19T05:12:34;2.90;;;2.30;;
57889;SDS011;43707;50.184;18.966;2023-11-19T05:14:59;1.90;;;1.60;;
57889;SDS011;43707;50.184;18.966;2023-11-19T05:17:25;2.80;;;2.00;;
57889;SDS011;43707;50.184;18.966;2023-11-19T05:19:51;2.40;;;2.10;;
57889;SDS011;43707;50.184;18.966;2023-11-19T05:22:16;2.50;;;2.00;;
57889;SDS011;43707;50.184;18.966;2023-11-19T05:24:42;2.10;;;1.70;;
57889;SDS011;43707;50.184;18.966;2023-11-19T05:27:07;2.70;;;2.10;;
57889;SDS011;43707;50.184;18.966;2023-11-19T05:29:36;3.50;;;2.30;;
57889;SDS011;43707;50.184;18.966;2023-11-19T05:32:04;2.70;;;1.80;;
57889;SDS011;43707;50.184;18.966;2023-11-19T05:34:30;2.80;;;1.70;;
57889;SDS011;43707;50.184;18.966;2023-11-19T05:36:56;6.60;;;2.00;;
57889;SDS011;43707;50.184;18.966;2023-11-19T05:39:22;4.00;;;1.80;;
57889;SDS011;43707;50.184;18.966;2023-11-19T05:41:48;2.40;;;1.90;;
57889;SDS011;43707;50.184;18.966;2023-11-19T05:44:13;2.60;;;1.70;;
57889;SDS011;43707;50.184;18.966;2023-11-19T05:46:39;3.10;;;1.90;;
57889;SDS011;43707;50.184;18.966;2023-11-19T05:49:07;2.40;;;1.90;;
57889;SDS011;43707;50.184;18.966;2023-11-19T05:51:37;2.80;;;2.30;;
57889;SDS011;43707;50.184;18.966;2023-11-19T05:54:09;2.80;;;2.10;;
57889;SDS011;43707;50.184;18.966;2023-11-19T05:56:35;2.70;;;1.70;;
57889;SDS011;43707;50.184;18.966;2023-11-19T05:59:01;2.40;;;1.50;;
57889;SDS011;43707;50.184;18.966;2023-11-19T06:01:30;3.00;;;1.70;;
57889;SDS011;43707;50.184;18.966;2023-11-19T06:03:56;1.90;;;1.50;;
57889;SDS011;43707;50.184;18.966;2023-11-19T06:06:22;1.90;;;1.60;;
57889;SDS011;43707;50.184;18.966;2023-11-19T06:08:47;2.00;;;1.60;;
57889;SDS011;43707;50.184;18.966;2023-11-19T06:11:12;1.40;;;1.20;;
57889;SDS011;43707;50.184;18.966;2023-11-19T06:13:43;1.40;;;1.10;;
57889;SDS011;43707;50.184;18.966;2023-11-19T06:16:09;1.30;;;1.20;;
57889;SDS011;43707;50.184;18.966;2023-11-19T06:18:36;1.10;;;1.00;;
57889;SDS011;43707;50.184;18.966;2023-11-19T06:21:01;1.50;;;1.10;;
57889;SDS011;43707;50.184;18.966;2023-11-19T06:23:27;1.10;;;0.90;;
57889;SDS011;43707;50.184;18.966;2023-11-19T06:25:52;0.90;;;0.80;;
57889;SDS011;43707;50.184;18.966;2023-11-19T06:28:18;1.90;;;1.10;;
57889;SDS011;43707;50.184;18.966;2023-11-19T06:30:44;1.10;;;1.00;;
57889;SDS011;43707;50.184;18.966;2023-11-19T06:33:12;1.60;;;1.20;;
57889;SDS011;43707;50.184;18.966;2023-11-19T06:35:38;1.40;;;1.20;;
57889;SDS011;43707;50.184;18.966;2023-11-19T06:38:03;1.40;;;1.20;;
57889;SDS011;43707;50.184;18.966;2023-11-19T06:40:34;1.30;;;1.10;;
57889;SDS011;43707;50.184;18.966;2023-11-19T06:43:00;1.70;;;1.00;;
57889;SDS011;43707;50.184;18.966;2023-11-19T06:45:27;0.80;;;0.80;;
57889;SDS011;43707;50.184;18.966;2023-11-19T06:47:53;1.20;;;1.10;;
57889;SDS011;43707;50.184;18.966;2023-11-19T06:50:18;1.20;;;1.10;;
57889;SDS011;43707;50.184;18.966;2023-11-19T06:52:44;1.30;;;1.10;;
57889;SDS011;43707;50.184;18.966;2023-11-19T06:55:10;1.10;;;0.70;;
57889;SDS011;43707;50.184;18.966;2023-11-19T06:57:35;2.30;;;1.00;;
57889;SDS011;43707;50.184;18.966;2023-11-19T07:00:01;1.20;;;0.80;;
57889;SDS011;43707;50.184;18.966;2023-11-19T07:02:26;1.40;;;1.20;;
57889;SDS011;43707;50.184;18.966;2023-11-19T07:04:52;2.30;;;0.90;;
57889;SDS011;43707;50.184;18.966;2023-11-19T07:07:17;1.30;;;1.10;;
57889;SDS011;43707;50.184;18.966;2023-11-19T07:09:42;0.80;;;0.80;;
57889;SDS011;43707;50.184;18.966;2023-11-19T07:12:08;0.80;;;0.80;;
57889;SDS011;43707;50.184;18.966;2023-11-19T07:14:34;1.10;;;0.70;;
57889;SDS011;43707;50.184;18.966;2023-11-19T07:16:59;1.10;;;1.00;;
57889;SDS011;43707;50.184;18.966;2023-11-19T07:19:25;1.00;;;0.90;;
57889;SDS011;43707;50.184;18.966;2023-11-19T07:21:51;0.90;;;0.80;;
57889;SDS011;43707;50.184;18.966;2023-11-19T07:24:19;1.00;;;0.90;;
57889;SDS011;43707;50.184;18.966;2023-11-19T07:26:46;1.20;;;0.80;;
57889;SDS011;43707;50.184;18.966;2023-11-19T07:29:12;1.10;;;1.00;;
57889;SDS011;43707;50.184;18.966;2023-11-19T07:31:38;1.00;;;1.00;;
57889;SDS011;43707;50.184;18.966;2023-11-19T07:34:04;1.40;;;1.00;;
57889;SDS011;43707;50.184;18.966;2023-11-19T07:36:31;0.80;;;0.80;;
57889;SDS011;43707;50.184;18.966;2023-11-19T07:38:57;1.10;;;1.00;;
57889;SDS011;43707;50.184;18.966;2023-11-19T07:41:23;1.30;;;1.10;;
57889;SDS011;43707;50.184;18.966;2023-11-19T07:43:50;0.90;;;0.80;;
57889;SDS011;43707;50.184;18.966;2023-11-19T07:46:16;1.20;;;1.10;;
57889;SDS011;43707;50.184;18.966;2023-11-19T07:48:44;0.90;;;0.90;;
57889;SDS011;43707;50.184;18.966;2023-11-19T07:51:12;1.20;;;1.10;;
57889;SDS011;43707;50.184;18.966;2023-11-19T07:53:38;3.10;;;1.50;;
57889;SDS011;43707;50.184;18.966;2023-11-19T07:56:04;3.80;;;1.30;;
57889;SDS011;43707;50.184;18.966;2023-11-19T07:58:30;1.70;;;1.30;;
57889;SDS011;43707;50.184;18.966;2023-11-19T08:00:56;4.40;;;1.80;;
57889;SDS011;43707;50.184;18.966;2023-11-19T08:03:21;1.70;;;1.60;;
57889;SDS011;43707;50.184;18.966;2023-11-19T08:05:49;1.80;;;1.70;;
57889;SDS011;43707;50.184;18.966;2023-11-19T08:08:16;1.80;;;1.60;;
57889;SDS011;43707;50.184;18.966;2023-11-19T08:10:41;1.60;;;1.50;;
57889;SDS011;43707;50.184;18.966;2023-11-19T08:13:08;2.00;;;1.10;;
57889;SDS011;43707;50.184;18.966;2023-11-19T08:15:33;0.80;;;0.80;;
57889;SDS011;43707;50.184;18.966;2023-11-19T08:17:59;1.50;;;1.30;;
57889;SDS011;43707;50.184;18.966;2023-11-19T08:20:24;1.20;;;1.10;;
57889;SDS011;43707;50.184;18.966;2023-11-19T08:22:50;1.20;;;1.10;;
57889;SDS011;43707;50.184;18.966;2023-11-19T08:25:15;1.20;;;1.10;;
57889;SDS011;43707;50.184;18.966;2023-11-19T08:27:41;1.80;;;1.20;;
57889;SDS011;43707;50.184;18.966;2023-11-19T08:30:08;1.60;;;1.20;;
57889;SDS011;43707;50.184;18.966;2023-11-19T08:32:34;3.80;;;1.50;;
57889;SDS011;43707;50.184;18.966;2023-11-19T08:34:59;4.00;;;2.00;;
57889;SDS011;43707;50.184;18.966;2023-11-19T08:37:25;2.30;;;1.50;;
57889;SDS011;43707;50.184;18.966;2023-11-19T08:39:50;2.40;;;1.20;;
57889;SDS011;43707;50.184;18.966;2023-11-19T08:42:16;1.90;;;1.30;;
57889;SDS011;43707;50.184;18.966;2023-11-19T08:44:42;1.70;;;1.20;;
57889;SDS011;43707;50.184;18.966;2023-11-19T08:47:11;1.30;;;1.00;;
57889;SDS011;43707;50.184;18.966;2023-11-19T08:49:39;1.80;;;1.40;;
57889;SDS011;43707;50.184;18.966;2023-11-19T08:52:05;1.50;;;1.40;;
57889;SDS011;43707;50.184;18.966;2023-11-19T08:54:34;1.50;;;1.40;;
57889;SDS011;43707;50.184;18.966;2023-11-19T08:56:59;1.20;;;0.90;;
57889;SDS011;43707;50.184;18.966;2023-11-19T08:59:25;1.20;;;1.10;;
57889;SDS011;43707;50.184;18.966;2023-11-19T09:01:51;1.70;;;1.50;;
57889;SDS011;43707;50.184;18.966;2023-11-19T09:04:16;2.00;;;1.50;;
57889;SDS011;43707;50.184;18.966;2023-11-19T09:06:42;1.30;;;1.20;;
57889;SDS011;43707;50.184;18.966;2023-11-19T09:09:08;1.00;;;0.90;;
57889;SDS011;43707;50.184;18.966;2023-11-19T09:11:34;1.60;;;1.30;;
57889;SDS011;43707;50.184;18.966;2023-11-19T09:14:00;1.60;;;1.20;;
57889;SDS011;43707;50.184;18.966;2023-11-19T09:16:25;1.50;;;1.10;;
57889;SDS011;43707;50.184;18.966;2023-11-19T09:18:51;1.40;;;1.10;;
57889;SDS011;43707;50.184;18.966;2023-11-19T09:21:16;2.00;;;1.20;;
57889;SDS011;43707;50.184;18.966;2023-11-19T09:23:42;1.20;;;1.10;;
57889;SDS011;43707;50.184;18.966;2023-11-19T09:26:09;1.30;;;1.20;;
57889;SDS011;43707;50.184;18.966;2023-11-19T09:28:37;1.80;;;1.50;;
57889;SDS011;43707;50.184;18.966;2023-11-19T09:31:02;1.90;;;1.30;;
57889;SDS011;43707;50.184;18.966;2023-11-19T09:33:31;2.00;;;1.50;;
57889;SDS011;43707;50.184;18.966;2023-11-19T09:35:56;1.20;;;1.10;;
57889;SDS011;43707;50.184;18.966;2023-11-19T09:38:22;1.70;;;1.30;;
57889;SDS011;43707;50.184;18.966;2023-11-19T09:40:48;1.50;;;1.30;;
57889;SDS011;43707;50.184;18.966;2023-11-19T09:43:14;1.40;;;1.30;;
57889;SDS011;43707;50.184;18.966;2023-11-19T09:45:50;1.60;;;1.50;;
57889;SDS011;43707;50.184;18.966;2023-11-19T09:48:19;1.90;;;1.70;;
57889;SDS011;43707;50.184;18.966;2023-11-19T09:50:47;1.80;;;1.50;;
57889;SDS011;43707;50.184;18.966;2023-11-19T09:53:14;1.90;;;1.60;;
57889;SDS011;43707;50.184;18.966;2023-11-19T09:55:40;1.40;;;1.30;;
57889;SDS011;43707;50.184;18.966;2023-11-19T09:58:07;1.80;;;1.30;;
57889;SDS011;43707;50.184;18.966;2023-11-19T10:00:33;6.10;;;1.30;;
57889;SDS011;43707;50.184;18.966;2023-11-19T10:02:59;1.50;;;1.30;;
57889;SDS011;43707;50.184;18.966;2023-11-19T10:05:25;3.50;;;1.60;;
57889;SDS011;43707;50.184;18.966;2023-11-19T10:07:51;2.50;;;1.80;;
57889;SDS011;43707;50.184;18.966;2023-11-19T10:10:18;2.10;;;1.90;;
57889;SDS011;43707;50.184;18.966;2023-11-19T10:12:47;2.50;;;1.80;;
57889;SDS011;43707;50.184;18.966;2023-11-19T10:15:23;2.10;;;1.70;;
57889;SDS011;43707;50.184;18.966;2023-11-19T10:17:51;2.50;;;1.90;;
57889;SDS011;43707;50.184;18.966;2023-11-19T10:20:17;2.30;;;1.90;;
57889;SDS011;43707;50.184;18.966;2023-11-19T10:22:43;2.70;;;2.00;;
57889;SDS011;43707;50.184;18.966;2023-11-19T10:25:22;4.50;;;2.00;;
57889;SDS011;43707;50.184;18.966;2023-11-19T10:27:52;2.30;;;2.10;;
57889;SDS011;43707;50.184;18.966;2023-11-19T10:30:21;2.40;;;2.20;;
57889;SDS011;43707;50.184;18.966;2023-11-19T10:33:08;2.10;;;1.80;;
57889;SDS011;43707;50.184;18.966;2023-11-19T10:35:34;2.70;;;1.70;;
57889;SDS011;43707;50.184;18.966;2023-11-19T10:38:01;2.40;;;1.90;;
57889;SDS011;43707;50.184;18.966;2023-11-19T10:40:47;2.10;;;1.80;;
57889;SDS011;43707;50.184;18.966;2023-11-19T10:43:14;3.00;;;2.00;;
57889;SDS011;43707;50.184;18.966;2023-11-19T10:45:40;2.30;;;1.90;;
57889;SDS011;43707;50.184;18.966;2023-11-19T10:48:06;3.70;;;2.80;;
57889;SDS011;43707;50.184;18.966;2023-11-19T10:50:35;3.10;;;1.80;;
57889;SDS011;43707;50.184;18.966;2023-11-19T10:53:02;3.70;;;1.50;;
57889;SDS011;43707;50.184;18.966;2023-11-19T10:55:35;1.90;;;1.70;;
57889;SDS011;43707;50.184;18.966;2023-11-19T10:58:04;1.80;;;1.70;;
57889;SDS011;43707;50.184;18.966;2023-11-19T11:00:37;1.90;;;1.30;;
57889;SDS011;43707;50.184;18.966;2023-11-19T11:03:11;2.50;;;1.40;;
57889;SDS011;43707;50.184;18.966;2023-11-19T11:05:42;1.30;;;1.20;;
57889;SDS011;43707;50.184;18.966;2023-11-19T11:08:07;1.50;;;1.30;;
57889;SDS011;43707;50.184;18.966;2023-11-19T11:10:35;1.60;;;1.30;;
57889;SDS011;43707;50.184;18.966;2023-11-19T11:13:05;1.60;;;1.30;;
57889;SDS011;43707;50.184;18.966;2023-11-19T11:15:30;2.20;;;1.20;;
57889;SDS011;43707;50.184;18.966;2023-11-19T11:18:00;3.10;;;1.40;;
57889;SDS011;43707;50.184;18.966;2023-11-19T11:20:30;1.90;;;1.10;;
57889;SDS011;43707;50.184;18.966;2023-11-19T11:28:18;1.40;;;1.10;;
57889;SDS011;43707;50.184;18.966;2023-11-19T11:30:51;1.80;;;1.50;;
57889;SDS011;43707;50.184;18.966;2023-11-19T11:38:40;2.40;;;1.50;;
57889;SDS011;43707;50.184;18.966;2023-11-19T11:43:49;1.60;;;1.20;;
57889;SDS011;43707;50.184;18.966;2023-11-19T11:48:57;1.20;;;1.10;;
57889;SDS011;43707;50.184;18.966;2023-11-19T11:59:49;1.80;;;1.10;;
57889;SDS011;43707;50.184;18.966;2023-11-19T12:02:17;2.20;;;1.00;;
57889;SDS011;43707;50.184;18.966;2023-11-19T12:04:49;1.70;;;1.40;;
57889;SDS011;43707;50.184;18.966;2023-11-19T12:07:18;1.30;;;1.00;;
57889;SDS011;43707;50.184;18.966;2023-11-19T12:09:47;1.30;;;1.00;;
57889;SDS011;43707;50.184;18.966;2023-11-19T12:20:02;3.20;;;1.60;;
57889;SDS011;43707;50.184;18.966;2023-11-19T12:22:28;2.40;;;1.80;;
57889;SDS011;43707;50.184;18.966;2023-11-19T12:24:54;3.30;;;2.20;;
57889;SDS011;43707;50.184;18.966;2023-11-19T12:27:20;2.90;;;2.10;;
57889;SDS011;43707;50.184;18.966;2023-11-19T12:29:49;4.10;;;3.10;;
57889;SDS011;43707;50.184;18.966;2023-11-19T12:32:15;2.70;;;2.30;;
57889;SDS011;43707;50.184;18.966;2023-11-19T12:34:40;2.80;;;1.90;;
57889;SDS011;43707;50.184;18.966;2023-11-19T12:37:09;3.20;;;1.90;;
57889;SDS011;43707;50.184;18.966;2023-11-19T12:39:35;3.20;;;2.10;;
57889;SDS011;43707;50.184;18.966;2023-11-19T12:42:00;3.10;;;2.00;;
57889;SDS011;43707;50.184;18.966;2023-11-19T12:44:26;5.40;;;2.50;;
57889;SDS011;43707;50.184;18.966;2023-11-19T12:49:26;2.60;;;1.60;;
57889;SDS011;43707;50.184;18.966;2023-11-19T12:51:52;2.70;;;1.80;;
57889;SDS011;43707;50.184;18.966;2023-11-19T12:54:17;3.10;;;2.10;;
57889;SDS011;43707;50.184;18.966;2023-11-19T12:56:52;2.20;;;1.60;;
57889;SDS011;43707;50.184;18.966;2023-11-19T12:59:18;2.00;;;1.70;;
57889;SDS011;43707;50.184;18.966;2023-11-19T13:01:56;2.40;;;1.90;;
57889;SDS011;43707;50.184;18.966;2023-11-19T13:04:23;2.40;;;1.70;;
57889;SDS011;43707;50.184;18.966;2023-11-19T13:06:51;2.50;;;1.80;;
57889;SDS011;43707;50.184;18.966;2023-11-19T13:09:22;2.30;;;1.80;;
57889;SDS011;43707;50.184;18.966;2023-11-19T13:11:52;1.70;;;1.30;;
57889;SDS011;43707;50.184;18.966;2023-11-19T13:14:18;1.70;;;1.00;;
57889;SDS011;43707;50.184;18.966;2023-11-19T13:16:44;2.20;;;1.60;;
57889;SDS011;43707;50.184;18.966;2023-11-19T13:19:13;1.50;;;1.10;;
57889;SDS011;43707;50.184;18.966;2023-11-19T13:21:39;1.50;;;1.10;;
57889;SDS011;43707;50.184;18.966;2023-11-19T13:24:06;1.40;;;1.10;;
57889;SDS011;43707;50.184;18.966;2023-11-19T13:26:38;1.50;;;0.90;;
57889;SDS011;43707;50.184;18.966;2023-11-19T13:29:03;1.60;;;1.20;;
57889;SDS011;43707;50.184;18.966;2023-11-19T13:31:29;1.50;;;0.90;;
57889;SDS011;43707;50.184;18.966;2023-11-19T13:33:55;1.10;;;0.90;;
57889;SDS011;43707;50.184;18.966;2023-11-19T13:36:20;1.70;;;0.80;;
57889;SDS011;43707;50.184;18.966;2023-11-19T13:38:47;1.00;;;0.70;;
57889;SDS011;43707;50.184;18.966;2023-11-19T13:41:14;1.40;;;0.90;;
57889;SDS011;43707;50.184;18.966;2023-11-19T13:43:40;1.30;;;0.90;;
57889;SDS011;43707;50.184;18.966;2023-11-19T13:46:07;1.00;;;0.90;;
57889;SDS011;43707;50.184;18.966;2023-11-19T13:48:35;1.20;;;0.90;;
57889;SDS011;43707;50.184;18.966;2023-11-19T13:51:00;1.10;;;1.00;;
57889;SDS011;43707;50.184;18.966;2023-11-19T13:53:26;1.60;;;0.80;;
57889;SDS011;43707;50.184;18.966;2023-11-19T13:55:51;1.60;;;1.00;;
57889;SDS011;43707;50.184;18.966;2023-11-19T13:58:16;1.10;;;0.80;;
57889;SDS011;43707;50.184;18.966;2023-11-19T14:00:42;5.80;;;1.00;;
57889;SDS011;43707;50.184;18.966;2023-11-19T14:03:08;1.60;;;1.00;;
57889;SDS011;43707;50.184;18.966;2023-11-19T14:05:37;1.30;;;0.90;;
57889;SDS011;43707;50.184;18.966;2023-11-19T14:08:04;1.10;;;0.90;;
57889;SDS011;43707;50.184;18.966;2023-11-19T14:10:39;1.40;;;1.00;;
57889;SDS011;43707;50.184;18.966;2023-11-19T14:13:06;1.40;;;1.00;;
57889;SDS011;43707;50.184;18.966;2023-11-19T14:15:32;4.70;;;0.90;;
57889;SDS011;43707;50.184;18.966;2023-11-19T14:17:57;1.30;;;0.80;;
57889;SDS011;43707;50.184;18.966;2023-11-19T14:20:23;0.80;;;0.80;;
57889;SDS011;43707;50.184;18.966;2023-11-19T14:22:49;0.90;;;0.70;;
57889;SDS011;43707;50.184;18.966;2023-11-19T14:25:16;0.70;;;0.60;;
57889;SDS011;43707;50.184;18.966;2023-11-19T14:27:42;0.60;;;0.50;;
57889;SDS011;43707;50.184;18.966;2023-11-19T14:30:08;0.70;;;0.60;;
57889;SDS011;43707;50.184;18.966;2023-11-19T14:32:42;1.20;;;0.50;;
57889;SDS011;43707;50.184;18.966;2023-11-19T14:35:11;0.40;;;0.40;;
57889;SDS011;43707;50.184;18.966;2023-11-19T14:37:36;0.60;;;0.50;;
57889;SDS011;43707;50.184;18.966;2023-11-19T14:40:02;0.60;;;0.50;;
57889;SDS011;43707;50.184;18.966;2023-11-19T14:42:33;0.50;;;0.50;;
57889;SDS011;43707;50.184;18.966;2023-11-19T14:44:58;0.60;;;0.40;;
57889;SDS011;43707;50.184;18.966;2023-11-19T14:47:24;0.80;;;0.40;;
57889;SDS011;43707;50.184;18.966;2023-11-19T14:49:50;0.90;;;0.60;;
57889;SDS011;43707;50.184;18.966;2023-11-19T14:52:15;0.70;;;0.60;;
57889;SDS011;43707;50.184;18.966;2023-11-19T14:54:41;0.80;;;0.70;;
57889;SDS011;43707;50.184;18.966;2023-11-19T14:57:07;1.10;;;0.40;;
57889;SDS011;43707;50.184;18.966;2023-11-19T14:59:33;2.30;;;0.90;;
57889;SDS011;43707;50.184;18.966;2023-11-19T15:01:59;0.40;;;0.40;;
57889;SDS011;43707;50.184;18.966;2023-11-19T15:04:27;0.60;;;0.50;;
57889;SDS011;43707;50.184;18.966;2023-11-19T15:06:52;0.50;;;0.50;;